Terminal Aerodrome Forecast
Issued by NWS

Home | Current Version | Previous Version | Text Only | Print | Product List | Glossary On
Versions: 1 2 3 4 5 6 7 8 9 10 11 12
000
FTUS46 KSEW 312300
TAFPAE
TAF
KPAE 312320Z 0100/0124 35007KT P6SM SCT250
     FM010400 01004KT P6SM SCT250
     FM011300 VRB03KT P6SM BKN120 PROB30 0115/0119 TS BKN120CB
     FM011900 32006KT P6SM SCT120=

USA.gov is the U.S. government's official web portal to all federal, state and local government web resources and services.